Time;durP1;ratioP1;P1;durP2;ratioP2;P2;SDS_P1;SDS_P2;PMS_P1;PMS_P2;Temp;Humidity;BMP_temperature;BMP_pressure;BME280_temperature;BME280_humidity;BME280_pressure;Samples;Min_cycle;Max_cycle;Signal;HPM_P1;HPM_P2
2022/10/26 00:01:06;;;;;;;12.55;7.93;;;11.00;99.90;;;;;;4882027;29;20053;-74
2022/10/26 00:03:33;;;;;;;15.93;8.07;;;11.00;99.90;;;;;;4881862;29;20660;-74
2022/10/26 00:06:09;;;;;;;10.07;7.68;;;11.00;99.90;;;;;;4880816;29;20045;-74
2022/10/26 00:08:36;;;;;;;14.88;8.15;;;11.00;99.90;;;;;;4880877;29;20557;-74
2022/10/26 00:11:02;;;;;;;13.57;7.53;;;11.00;99.90;;;;;;4880415;29;20104;-74
2022/10/26 00:13:27;;;;;;;15.02;7.97;;;11.00;99.90;;;;;;4881375;29;20061;-74
2022/10/26 00:15:53;;;;;;;11.60;7.28;;;11.00;99.90;;;;;;4880441;29;20052;-74
2022/10/26 00:18:19;;;;;;;12.48;8.25;;;11.10;99.90;;;;;;4881910;29;20128;-74
2022/10/26 00:20:45;;;;;;;12.98;7.55;;;11.00;99.90;;;;;;4880782;29;20048;-74
2022/10/26 00:23:10;;;;;;;14.05;7.90;;;11.00;99.90;;;;;;4881615;29;20060;-75
2022/10/26 00:25:36;;;;;;;13.00;7.75;;;11.00;99.90;;;;;;4881553;29;20052;-74
2022/10/26 00:28:02;;;;;;;12.52;7.90;;;11.00;99.90;;;;;;4881589;29;20131;-74
2022/10/26 00:30:28;;;;;;;12.40;7.95;;;11.00;99.90;;;;;;4865111;29;20057;-74
2022/10/26 00:32:54;;;;;;;11.55;7.03;;;11.00;99.90;;;;;;4882002;29;20072;-74
2022/10/26 00:35:19;;;;;;;12.27;7.63;;;11.00;99.90;;;;;;4880561;29;20057;-74
2022/10/26 00:37:45;;;;;;;10.95;6.93;;;10.90;99.90;;;;;;4880460;29;20093;-74
2022/10/26 00:40:11;;;;;;;15.05;7.70;;;10.90;99.90;;;;;;4881430;29;20049;-74
2022/10/26 00:42:37;;;;;;;14.55;7.28;;;10.90;99.90;;;;;;4879506;29;20113;-74
2022/10/26 00:45:28;;;;;;;13.63;7.18;;;11.00;99.90;;;;;;4881087;29;20479;-74
2022/10/26 00:48:18;;;;;;;10.32;7.70;;;11.80;99.90;;;;;;4881369;29;20147;-74
2022/10/26 00:50:46;;;;;;;12.55;7.63;;;11.00;99.90;;;;;;4881077;29;20056;-74
2022/10/26 00:53:12;;;;;;;12.90;7.97;;;11.00;99.90;;;;;;4881070;29;20057;-74
2022/10/26 00:55:44;;;;;;;12.25;7.47;;;11.00;99.90;;;;;;4879914;29;20048;-74
2022/10/26 00:58:11;;;;;;;12.77;7.80;;;11.00;99.90;;;;;;4881392;29;20045;-74
2022/10/26 01:00:38;;;;;;;14.32;7.22;;;11.00;99.90;;;;;;4881119;29;20049;-74
2022/10/26 01:03:06;;;;;;;11.10;7.55;;;11.00;99.90;;;;;;4880895;29;20092;-74
2022/10/26 01:05:34;;;;;;;12.68;7.72;;;11.00;99.90;;;;;;4880803;29;20093;-74
2022/10/26 01:08:01;;;;;;;12.93;7.82;;;11.00;99.90;;;;;;4880316;29;20128;-74
2022/10/26 01:10:28;;;;;;;12.93;7.53;;;11.00;99.90;;;;;;4879617;29;20060;-74
2022/10/26 01:12:57;;;;;;;11.52;6.90;;;11.00;99.90;;;;;;4880047;29;20093;-74
2022/10/26 01:15:35;;;;;;;12.13;7.55;;;11.00;99.90;;;;;;4879739;29;20061;-74
2022/10/26 01:18:19;;;;;;;15.10;7.80;;;11.00;99.90;;;;;;4879556;29;20132;-74
2022/10/26 01:21:03;;;;;;;14.63;8.32;;;11.00;99.90;;;;;;4880793;29;20100;-74
2022/10/26 01:23:55;;;;;;;12.65;8.65;;;11.00;99.90;;;;;;4880646;29;20045;-74
2022/10/26 01:26:35;;;;;;;13.02;8.25;;;10.90;99.90;;;;;;4879614;29;20233;-74
2022/10/26 01:29:07;;;;;;;12.77;8.00;;;10.90;99.90;;;;;;4880280;29;20449;-74
2022/10/26 01:32:10;;;;;;;15.45;8.60;;;10.90;99.90;;;;;;4864235;29;20056;-74
2022/10/26 01:34:48;;;;;;;11.63;8.05;;;10.90;99.90;;;;;;4867199;29;20570;-74
2022/10/26 01:37:23;;;;;;;11.50;7.43;;;10.90;99.90;;;;;;4879313;29;20052;-74
2022/10/26 01:39:54;;;;;;;10.57;6.88;;;10.90;99.90;;;;;;4879618;29;20517;-74
2022/10/26 01:42:22;;;;;;;12.27;7.65;;;10.90;99.90;;;;;;4879025;29;20509;-74
2022/10/26 01:45:02;;;;;;;14.57;7.72;;;10.90;99.90;;;;;;4880219;29;20052;-74
2022/10/26 01:47:31;;;;;;;8.98;7.20;;;10.90;99.90;;;;;;4880304;29;20064;-74
2022/10/26 01:49:59;;;;;;;11.68;7.43;;;10.90;99.90;;;;;;4880258;29;20053;-74
2022/10/26 01:52:25;;;;;;;13.85;7.85;;;10.90;99.90;;;;;;4879085;29;20132;-74
2022/10/26 01:54:51;;;;;;;13.35;7.57;;;10.90;99.90;;;;;;4863455;29;20041;-74
2022/10/26 01:57:19;;;;;;;12.90;8.73;;;10.90;99.90;;;;;;4863660;29;20048;-73
2022/10/26 01:59:47;;;;;;;11.43;8.10;;;10.90;99.90;;;;;;4879038;29;20494;-74
2022/10/26 02:02:41;;;;;;;12.35;8.43;;;10.90;99.90;;;;;;4878758;29;20088;-74
2022/10/26 02:05:43;;;;;;;10.52;7.38;;;10.90;99.90;;;;;;4878724;29;20048;-74
2022/10/26 02:08:20;;;;;;;12.52;8.32;;;10.80;99.90;;;;;;4876551;29;20103;-74
2022/10/26 02:11:08;;;;;;;13.60;8.55;;;10.80;99.90;;;;;;4878786;29;20053;-73
2022/10/26 02:13:40;;;;;;;12.18;8.05;;;10.80;99.90;;;;;;4879298;29;20113;-74
2022/10/26 02:16:18;;;;;;;13.40;8.32;;;10.80;99.90;;;;;;4863250;29;20123;-74
2022/10/26 02:19:22;;;;;;;11.98;8.68;;;10.70;99.90;;;;;;4878684;29;20052;-74
2022/10/26 02:21:52;;;;;;;14.63;8.80;;;10.70;99.90;;;;;;4847141;29;20068;-73
2022/10/26 02:24:20;;;;;;;12.55;8.32;;;10.70;99.90;;;;;;4878599;29;20057;-74
2022/10/26 02:26:48;;;;;;;11.52;7.95;;;10.70;99.90;;;;;;4879767;29;20045;-74
2022/10/26 02:29:18;;;;;;;11.43;8.68;;;10.70;99.90;;;;;;4879471;29;20060;-74
2022/10/26 02:31:47;;;;;;;13.98;8.07;;;10.70;99.90;;;;;;4879812;29;20136;-74
2022/10/26 02:34:17;;;;;;;14.20;9.25;;;10.70;99.90;;;;;;4878623;29;20494;-74
2022/10/26 02:36:46;;;;;;;14.35;8.27;;;10.70;99.90;;;;;;4878479;29;20044;-74
2022/10/26 02:39:15;;;;;;;12.77;8.07;;;10.60;99.90;;;;;;4878468;29;20108;-74
2022/10/26 02:41:43;;;;;;;11.15;8.32;;;10.60;99.90;;;;;;4878839;29;20105;-74
2022/10/26 02:44:23;;;;;;;13.40;8.23;;;10.60;99.90;;;;;;4862876;29;20053;-74
2022/10/26 02:46:50;;;;;;;12.80;7.72;;;10.60;99.90;;;;;;4879647;29;20057;-74
2022/10/26 02:49:17;;;;;;;12.95;7.85;;;10.50;99.90;;;;;;4878516;29;20444;-74
2022/10/26 02:51:54;;;;;;;13.52;8.13;;;10.50;99.90;;;;;;4878209;29;20513;-74
2022/10/26 02:54:31;;;;;;;13.20;8.55;;;10.50;99.90;;;;;;4878224;29;20132;-74
2022/10/26 02:57:25;;;;;;;13.25;8.30;;;10.50;99.90;;;;;;4879530;29;20056;-74
2022/10/26 02:59:52;;;;;;;10.18;6.82;;;10.40;99.90;;;;;;4877544;29;20064;-74
2022/10/26 03:02:21;;;;;;;14.02;8.43;;;10.40;99.90;;;;;;4863129;29;20057;-74
2022/10/26 03:04:49;;;;;;;11.65;7.45;;;10.40;99.90;;;;;;4878020;29;20073;-74
2022/10/26 03:07:22;;;;;;;11.45;7.85;;;10.30;99.90;;;;;;4878268;29;20049;-74
2022/10/26 03:09:48;;;;;;;12.27;7.72;;;10.30;99.90;;;;;;4878793;29;20443;-74
2022/10/26 03:12:14;;;;;;;14.15;8.20;;;10.30;99.90;;;;;;4877653;29;20065;-74
2022/10/26 03:14:40;;;;;;;12.32;7.70;;;10.30;99.90;;;;;;4878212;29;20084;-74
2022/10/26 03:17:06;;;;;;;10.60;7.22;;;10.30;99.90;;;;;;4877954;29;20080;-74
2022/10/26 03:19:32;;;;;;;10.13;7.03;;;10.20;99.90;;;;;;4877856;29;20064;-74
2022/10/26 03:21:57;;;;;;;12.88;8.38;;;10.20;99.90;;;;;;4879321;29;20056;-74
2022/10/26 03:24:24;;;;;;;12.02;7.93;;;10.10;99.90;;;;;;4878181;29;20049;-74
2022/10/26 03:26:50;;;;;;;12.40;8.55;;;10.20;99.90;;;;;;4878112;29;20155;-74
2022/10/26 03:29:16;;;;;;;14.50;8.60;;;10.10;99.90;;;;;;4878161;29;20128;-74
2022/10/26 03:31:41;;;;;;;12.20;8.00;;;10.10;99.90;;;;;;4863183;29;20091;-74
2022/10/26 03:34:07;;;;;;;13.05;8.68;;;10.10;99.90;;;;;;4881307;29;20041;-74
2022/10/26 03:36:33;;;;;;;13.40;8.40;;;10.00;99.90;;;;;;4881591;29;20049;-74
2022/10/26 03:38:58;;;;;;;15.75;8.60;;;10.00;99.90;;;;;;4881722;29;20049;-74
2022/10/26 03:41:24;;;;;;;13.15;9.25;;;10.00;99.90;;;;;;4882832;29;20045;-74
2022/10/26 03:43:50;;;;;;;16.35;9.52;;;10.00;99.90;;;;;;4881788;29;20045;-73
2022/10/26 03:46:15;;;;;;;16.17;9.45;;;10.00;99.90;;;;;;4881289;29;20103;-74
2022/10/26 03:48:41;;;;;;;15.52;9.57;;;10.00;99.90;;;;;;4865799;29;20079;-74
2022/10/26 03:51:07;;;;;;;15.27;9.35;;;10.00;99.90;;;;;;4881194;29;20092;-74
2022/10/26 03:53:33;;;;;;;16.83;9.65;;;10.00;99.90;;;;;;4881406;29;20095;-74
2022/10/26 03:55:58;;;;;;;15.43;10.05;;;10.00;99.90;;;;;;4881126;29;20045;-74
2022/10/26 03:58:24;;;;;;;17.63;10.82;;;10.00;99.90;;;;;;4881231;29;20401;-74
2022/10/26 04:00:50;;;;;;;16.27;10.75;;;10.00;99.90;;;;;;4881170;29;20045;-74
2022/10/26 04:03:16;;;;;;;18.23;11.23;;;10.00;99.90;;;;;;4880981;29;20520;-74
2022/10/26 04:05:42;;;;;;;17.63;10.77;;;10.00;99.90;;;;;;4865580;29;20072;-74
2022/10/26 04:08:08;;;;;;;19.65;11.75;;;10.10;99.90;;;;;;4882039;29;20481;-74
2022/10/26 04:10:33;;;;;;;19.58;10.88;;;10.00;99.90;;;;;;4865966;29;20049;-74
2022/10/26 04:13:00;;;;;;;21.13;10.88;;;10.10;99.90;;;;;;4879914;29;20490;-74
2022/10/26 04:15:26;;;;;;;16.08;10.32;;;10.10;99.90;;;;;;4881703;29;20060;-74
2022/10/26 04:17:59;;;;;;;16.80;11.35;;;10.20;99.90;;;;;;4865216;29;20052;-74
2022/10/26 04:20:26;;;;;;;19.38;10.65;;;10.50;99.90;;;;;;4865563;29;20056;-74
2022/10/26 04:23:04;;;;;;;17.55;11.05;;;10.20;99.90;;;;;;4881912;29;20091;-74
2022/10/26 04:25:31;;;;;;;21.27;11.73;;;10.20;99.90;;;;;;4881634;29;20048;-74
2022/10/26 04:27:57;;;;;;;17.20;10.82;;;10.20;99.90;;;;;;4865428;29;20398;-74
2022/10/26 04:30:23;;;;;;;18.30;11.15;;;10.20;99.90;;;;;;4881389;29;20049;-74
2022/10/26 04:32:48;;;;;;;17.58;10.57;;;10.20;99.90;;;;;;4880850;29;20053;-74
2022/10/26 04:35:14;;;;;;;15.38;10.10;;;10.20;99.90;;;;;;4881608;29;20143;-74
2022/10/26 04:37:40;;;;;;;16.38;11.63;;;10.20;99.90;;;;;;4865030;29;20049;-74
2022/10/26 04:40:06;;;;;;;17.02;11.10;;;10.30;99.90;;;;;;4880414;29;20045;-74
2022/10/26 04:42:45;;;;;;;18.88;11.40;;;10.20;99.90;;;;;;4880815;29;20113;-74
2022/10/26 04:45:13;;;;;;;19.58;11.50;;;10.20;99.90;;;;;;4879616;29;20059;-74
2022/10/26 04:47:40;;;;;;;16.75;10.73;;;10.20;99.90;;;;;;4881279;29;20520;-74
2022/10/26 04:50:07;;;;;;;21.88;12.48;;;10.30;99.90;;;;;;4880124;29;20060;-74
2022/10/26 04:52:34;;;;;;;19.48;11.35;;;10.30;99.90;;;;;;4881179;29;20055;-74
2022/10/26 04:55:00;;;;;;;19.23;12.27;;;10.30;99.90;;;;;;4880140;29;20092;-74
2022/10/26 04:57:26;;;;;;;22.45;12.15;;;10.30;99.90;;;;;;4879937;29;20493;-74
2022/10/26 04:59:52;;;;;;;19.45;11.80;;;10.30;99.90;;;;;;4880183;29;20049;-74
2022/10/26 05:02:19;;;;;;;18.65;11.15;;;10.20;99.90;;;;;;4879959;29;20128;-74
2022/10/26 05:04:45;;;;;;;20.60;11.90;;;10.30;99.90;;;;;;4864762;29;20446;-74
2022/10/26 05:07:11;;;;;;;18.27;11.13;;;10.30;99.90;;;;;;4864520;29;20140;-74
2022/10/26 05:09:37;;;;;;;15.48;10.93;;;10.20;99.90;;;;;;4864333;29;20132;-74
2022/10/26 05:12:03;;;;;;;21.10;11.10;;;10.20;99.90;;;;;;4878972;29;20061;-74
2022/10/26 05:14:28;;;;;;;18.83;11.48;;;10.30;99.90;;;;;;4864578;29;20057;-74
2022/10/26 05:16:55;;;;;;;18.73;11.63;;;10.30;99.90;;;;;;4880842;29;20048;-74
2022/10/26 05:19:20;;;;;;;19.60;11.60;;;10.30;99.90;;;;;;4864488;29;20085;-74
2022/10/26 05:21:46;;;;;;;18.00;10.52;;;10.30;99.90;;;;;;4880677;29;20080;-74
2022/10/26 05:24:12;;;;;;;18.15;10.60;;;10.30;99.90;;;;;;4863941;29;20048;-74
2022/10/26 05:26:37;;;;;;;17.42;10.93;;;10.50;99.90;;;;;;4880408;29;20144;-74
2022/10/26 05:29:03;;;;;;;19.00;10.95;;;10.40;99.90;;;;;;4880640;29;20049;-74
2022/10/26 05:31:29;;;;;;;15.80;10.13;;;10.40;99.90;;;;;;4879389;29;20398;-74
2022/10/26 05:33:54;;;;;;;17.73;11.10;;;10.60;99.90;;;;;;4864431;29;20045;-74
2022/10/26 05:36:20;;;;;;;19.55;10.57;;;10.40;99.90;;;;;;4879423;29;20053;-74
2022/10/26 05:38:46;;;;;;;15.10;9.75;;;10.50;99.90;;;;;;4880468;29;20048;-74
2022/10/26 05:41:12;;;;;;;17.40;10.73;;;10.50;99.90;;;;;;4880215;29;20117;-75
2022/10/26 05:43:38;;;;;;;15.05;10.43;;;10.50;99.90;;;;;;4863563;29;20048;-74
2022/10/26 05:46:04;;;;;;;15.95;9.80;;;10.50;99.90;;;;;;4879521;29;20116;-74
2022/10/26 05:48:29;;;;;;;16.52;10.55;;;10.50;99.90;;;;;;4879461;29;20431;-74
2022/10/26 05:50:59;;;;;;;18.55;9.95;;;10.50;99.90;;;;;;4879344;29;20071;-74
2022/10/26 05:53:26;;;;;;;16.42;10.25;;;10.60;99.90;;;;;;4880323;29;20528;-74
2022/10/26 05:55:53;;;;;;;17.23;10.25;;;10.60;99.90;;;;;;4863685;29;20131;-74
2022/10/26 05:58:19;;;;;;;14.52;9.98;;;10.60;99.90;;;;;;4879196;29;20056;-74
2022/10/26 06:00:51;;;;;;;14.85;9.43;;;10.60;99.90;;;;;;4879277;29;20056;-74
2022/10/26 06:03:34;;;;;;;15.85;9.52;;;10.60;99.90;;;;;;4880296;29;20090;-74
2022/10/26 06:06:00;;;;;;;15.15;8.85;;;10.60;99.90;;;;;;4879263;29;20048;-75
2022/10/26 06:08:27;;;;;;;13.23;9.68;;;10.60;99.90;;;;;;4878572;29;20430;-74
2022/10/26 06:10:55;;;;;;;14.05;9.20;;;10.60;99.90;;;;;;4863010;29;20053;-75
2022/10/26 06:13:21;;;;;;;15.25;8.73;;;10.60;99.90;;;;;;4879508;29;20135;-74
2022/10/26 06:16:19;;;;;;;16.45;9.90;;;10.60;99.90;;;;;;4878824;29;20650;-74
2022/10/26 06:18:57;;;;;;;16.80;9.07;;;10.70;99.90;;;;;;4879688;29;20056;-74
2022/10/26 06:21:41;;;;;;;14.25;8.23;;;10.70;99.90;;;;;;4880279;29;20053;-74
2022/10/26 06:24:26;;;;;;;16.15;8.55;;;10.70;99.90;;;;;;4878686;29;20446;-74
2022/10/26 06:26:54;;;;;;;14.20;8.13;;;10.70;99.90;;;;;;4878766;29;20049;-74
2022/10/26 06:29:20;;;;;;;11.55;7.65;;;10.70;99.90;;;;;;4878454;29;20166;-75
2022/10/26 06:31:46;;;;;;;14.38;7.82;;;10.80;99.90;;;;;;4863161;29;20132;-74
2022/10/26 06:34:19;;;;;;;14.82;8.13;;;10.80;99.90;;;;;;4878566;29;20132;-74
2022/10/26 06:36:46;;;;;;;15.10;8.00;;;10.80;99.90;;;;;;4878769;29;20084;-74
2022/10/26 06:39:14;;;;;;;13.05;7.80;;;10.80;99.90;;;;;;4878479;29;20402;-74
2022/10/26 06:41:40;;;;;;;10.60;8.13;;;10.80;99.90;;;;;;4879267;29;20489;-74
2022/10/26 06:44:11;;;;;;;12.60;7.80;;;10.80;99.90;;;;;;4878981;29;20141;-74
2022/10/26 06:46:47;;;;;;;13.88;8.07;;;10.80;99.90;;;;;;4880032;29;20048;-73
2022/10/26 06:49:30;;;;;;;11.57;7.50;;;10.80;99.90;;;;;;4878941;29;20064;-74
2022/10/26 06:51:57;;;;;;;13.05;7.22;;;10.80;99.90;;;;;;4862983;29;20061;-74
2022/10/26 06:54:50;;;;;;;12.25;7.68;;;10.80;99.90;;;;;;4878305;29;20064;-74
2022/10/26 06:57:19;;;;;;;14.98;7.47;;;10.80;99.90;;;;;;4878472;29;20136;-74
2022/10/26 07:00:00;;;;;;;14.23;7.68;;;10.90;99.90;;;;;;4878482;29;20104;-74
2022/10/26 07:02:26;;;;;;;12.95;7.90;;;10.80;99.90;;;;;;4879234;29;20103;-74
2022/10/26 07:04:52;;;;;;;13.50;7.22;;;10.90;99.90;;;;;;4879176;29;20084;-74
2022/10/26 07:07:24;;;;;;;12.00;6.93;;;10.90;99.90;;;;;;4864801;29;20053;-74
2022/10/26 07:09:50;;;;;;;12.73;6.90;;;11.00;99.90;;;;;;4883102;29;20052;-74
2022/10/26 07:12:16;;;;;;;11.50;6.78;;;11.00;99.90;;;;;;4881121;29;20100;-74
2022/10/26 07:14:42;;;;;;;10.13;6.80;;;11.00;99.90;;;;;;4881747;29;20092;-74
2022/10/26 07:17:08;;;;;;;11.25;6.05;;;11.00;99.90;;;;;;4866459;29;20477;-75
2022/10/26 07:19:34;;;;;;;12.00;6.22;;;11.10;99.90;;;;;;4881849;29;20064;-74
2022/10/26 07:22:00;;;;;;;9.50;5.85;;;11.10;99.90;;;;;;4883164;29;20045;-74
2022/10/26 07:24:29;;;;;;;8.57;5.97;;;11.10;99.90;;;;;;4866148;29;20104;-74
2022/10/26 07:26:57;;;;;;;9.90;6.40;;;11.10;99.90;;;;;;4882700;29;20048;-74
2022/10/26 07:29:24;;;;;;;10.65;6.30;;;11.10;99.90;;;;;;4882657;29;20128;-74
2022/10/26 07:31:50;;;;;;;9.23;6.25;;;11.10;99.90;;;;;;4882410;29;20049;-74
2022/10/26 07:34:16;;;;;;;8.65;5.50;;;11.10;99.90;;;;;;4881484;29;20068;-74
2022/10/26 07:36:41;;;;;;;10.75;6.43;;;11.20;99.90;;;;;;4866347;29;20462;-74
2022/10/26 07:39:07;;;;;;;10.43;5.78;;;11.20;99.90;;;;;;4866029;29;20139;-74
2022/10/26 07:41:34;;;;;;;8.60;6.10;;;11.20;99.90;;;;;;4881535;29;20037;-74
2022/10/26 07:44:00;;;;;;;10.07;5.97;;;11.20;99.90;;;;;;4881720;29;20048;-74
2022/10/26 07:46:26;;;;;;;9.02;5.82;;;11.30;99.90;;;;;;4882263;29;20049;-74
2022/10/26 07:48:52;;;;;;;12.68;6.28;;;11.30;99.90;;;;;;4865635;29;20052;-74
2022/10/26 07:51:18;;;;;;;12.23;6.30;;;11.30;99.90;;;;;;4866128;29;20145;-73
2022/10/26 07:53:44;;;;;;;10.80;6.32;;;11.30;99.90;;;;;;4866160;29;20520;-73
2022/10/26 07:56:12;;;;;;;9.55;6.05;;;11.40;99.90;;;;;;4881609;29;20056;-73
2022/10/26 07:58:38;;;;;;;8.68;5.45;;;11.40;99.90;;;;;;4882343;29;20045;-74
2022/10/26 08:01:12;;;;;;;8.73;5.80;;;11.40;99.90;;;;;;4881867;29;20056;-74
2022/10/26 08:03:39;;;;;;;8.73;5.28;;;11.50;99.90;;;;;;4882188;29;20127;-74
2022/10/26 08:06:05;;;;;;;9.90;5.72;;;11.50;99.90;;;;;;4880914;29;20506;-74
2022/10/26 08:08:31;;;;;;;9.30;5.57;;;11.50;99.90;;;;;;4881006;29;20055;-74
2022/10/26 08:10:57;;;;;;;16.67;7.30;;;11.60;99.90;;;;;;4882085;29;20406;-74
2022/10/26 08:13:23;;;;;;;13.18;6.15;;;11.60;99.90;;;;;;4895722;29;20057;-74
2022/10/26 08:15:49;;;;;;;8.45;5.00;;;11.60;99.90;;;;;;4880572;29;20398;-74
2022/10/26 08:18:15;;;;;;;9.32;5.13;;;11.70;99.90;;;;;;4879297;29;20097;-74
2022/10/26 08:20:40;;;;;;;9.57;5.10;;;11.70;99.90;;;;;;4881905;29;20554;-74
2022/10/26 08:23:07;;;;;;;8.93;5.00;;;11.80;99.90;;;;;;4865454;29;20096;-74
2022/10/26 08:25:33;;;;;;;7.90;5.28;;;11.80;99.90;;;;;;4865152;29;20055;-74
2022/10/26 08:28:03;;;;;;;7.43;4.85;;;11.90;99.90;;;;;;4881583;29;20049;-74
2022/10/26 08:30:32;;;;;;;10.48;4.95;;;12.00;99.90;;;;;;4880889;29;20427;-73
2022/10/26 08:33:08;;;;;;;6.45;4.68;;;12.00;99.90;;;;;;4880616;29;20053;-73
2022/10/26 08:35:34;;;;;;;10.80;4.53;;;12.10;99.90;;;;;;4881850;29;20041;-74
2022/10/26 08:38:00;;;;;;;8.32;4.35;;;12.10;99.90;;;;;;4881647;29;20045;-71
2022/10/26 08:40:30;;;;;;;6.15;4.00;;;12.20;99.90;;;;;;4880303;29;20056;-73
2022/10/26 08:43:16;;;;;;;7.13;4.25;;;12.30;99.90;;;;;;4881258;29;20509;-71
2022/10/26 08:46:03;;;;;;;5.82;3.85;;;12.30;99.90;;;;;;4879843;29;20249;-71
2022/10/26 08:48:36;;;;;;;6.15;4.10;;;12.40;99.90;;;;;;4881093;29;20388;-72
2022/10/26 08:51:05;;;;;;;;;;;12.40;99.90;;;;;;4880702;29;20615;-74
2022/10/26 08:53:46;;;;;;;5.07;3.30;;;12.50;99.90;;;;;;4865151;29;19931;-71
2022/10/26 08:56:18;;;;;;;6.32;3.40;;;12.50;99.90;;;;;;4880869;29;20160;-72
2022/10/26 08:58:53;;;;;;;6.33;3.23;;;12.60;99.90;;;;;;4881395;29;20067;-71
2022/10/26 09:01:19;;;;;;;7.78;4.57;;;12.70;99.90;;;;;;4881151;29;20053;-71
2022/10/26 09:03:44;;;;;;;6.80;3.30;;;12.70;99.90;;;;;;4864655;29;20101;-72
2022/10/26 09:06:19;;;;;;;5.75;3.65;;;12.70;99.90;;;;;;4881199;29;20049;-74
2022/10/26 09:09:00;;;;;;;3.83;3.30;;;12.80;99.90;;;;;;4879526;29;20041;-75
2022/10/26 09:11:49;;;;;;;6.60;3.10;;;12.80;99.90;;;;;;4878332;29;20458;-73
2022/10/26 09:14:37;;;;;;;6.90;3.42;;;12.80;99.90;;;;;;4878295;29;20086;-75
2022/10/26 09:17:42;;;;;;;5.28;3.30;;;12.90;99.90;;;;;;4870104;29;20049;-75
2022/10/26 09:20:32;;;;;;;6.78;3.00;;;12.90;99.90;;;;;;4863865;29;20060;-75
2022/10/26 09:23:32;;;;;;;4.82;3.03;;;12.90;99.90;;;;;;4879396;29;20048;-75
2022/10/26 09:26:00;;;;;;;5.00;3.10;;;13.00;99.90;;;;;;4880014;29;20127;-75
2022/10/26 09:28:31;;;;;;;4.70;3.20;;;13.00;99.90;;;;;;4879160;29;20045;-76
2022/10/26 09:30:58;;;;;;;3.90;3.17;;;13.10;99.90;;;;;;4864036;29;20049;-75
2022/10/26 09:33:25;;;;;;;4.28;2.70;;;13.10;99.90;;;;;;4879413;29;20045;-75
2022/10/26 09:35:56;;;;;;;5.05;3.00;;;13.20;99.90;;;;;;4879283;29;20065;-76
2022/10/26 09:38:39;;;;;;;7.55;2.78;;;13.20;99.90;;;;;;4877694;29;20068;-75
2022/10/26 09:41:30;;;;;;;5.88;2.90;;;13.30;99.90;;;;;;4876784;29;20052;-75
2022/10/26 09:44:19;;;;;;;3.58;2.38;;;13.30;99.90;;;;;;4879192;29;20059;-76
2022/10/26 09:46:45;;;;;;;4.05;2.17;;;13.40;99.90;;;;;;4876944;29;20184;-75
2022/10/26 09:49:14;;;;;;;6.55;2.20;;;13.40;99.90;;;;;;4863785;29;20104;-75
2022/10/26 09:51:41;;;;;;;4.80;2.10;;;13.50;99.90;;;;;;4879572;29;20140;-75
2022/10/26 09:54:15;;;;;;;3.83;1.92;;;13.50;99.90;;;;;;4880003;29;20557;-75
2022/10/26 09:56:44;;;;;;;3.17;1.77;;;13.60;99.90;;;;;;4876583;29;20056;-75
2022/10/26 09:59:10;;;;;;;3.90;2.08;;;13.70;99.90;;;;;;4879705;29;20045;-75
2022/10/26 10:01:36;;;;;;;3.00;2.08;;;13.70;99.90;;;;;;4863481;29;20113;-74
2022/10/26 10:04:24;;;;;;;4.15;1.90;;;13.80;99.90;;;;;;4879693;29;20077;-73
2022/10/26 10:07:12;;;;;;;4.78;1.48;;;13.80;99.90;;;;;;4878674;29;20109;-75
2022/10/26 10:09:38;;;;;;;3.53;2.15;;;13.90;99.90;;;;;;4879192;29;20129;-75
2022/10/26 10:12:04;;;;;;;4.15;2.05;;;13.90;99.90;;;;;;4878035;29;20049;-75
2022/10/26 10:14:38;;;;;;;4.38;2.00;;;14.00;99.90;;;;;;4879561;29;20410;-73
2022/10/26 10:17:14;;;;;;;6.80;2.30;;;14.00;99.90;;;;;;4877469;29;20052;-73
2022/10/26 10:19:39;;;;;;;3.97;1.92;;;14.10;99.90;;;;;;4879566;29;20048;-72
2022/10/26 10:22:17;;;;;;;4.53;1.88;;;14.20;99.90;;;;;;4878219;29;20123;-71
2022/10/26 10:25:00;;;;;;;4.15;1.70;;;14.20;99.90;;;;;;4854278;29;20077;-73
2022/10/26 10:27:28;;;;;;;4.32;2.08;;;14.20;99.90;;;;;;4876873;29;20500;-73
2022/10/26 10:29:56;;;;;;;4.55;1.70;;;14.30;99.90;;;;;;4879557;29;20049;-73
2022/10/26 10:32:23;;;;;;;5.10;1.67;;;14.30;99.90;;;;;;4877066;29;20128;-73
2022/10/26 10:34:51;;;;;;;4.35;1.65;;;14.30;99.90;;;;;;4878247;29;20053;-72
2022/10/26 10:37:37;;;;;;;4.80;1.85;;;14.30;99.90;;;;;;4878052;29;20045;-73
2022/10/26 10:40:15;;;;;;;4.78;1.67;;;14.40;99.90;;;;;;4872234;29;20084;-72
2022/10/26 10:42:42;;;;;;;4.93;2.10;;;14.40;99.90;;;;;;4874939;29;20045;-73
2022/10/26 10:45:20;;;;;;;4.97;1.75;;;14.40;99.90;;;;;;4878540;29;20479;-72
2022/10/26 10:48:13;;;;;;;1.63;1.42;;;14.40;99.90;;;;;;4876634;29;20076;-73
2022/10/26 10:50:55;;;;;;;5.22;1.75;;;14.40;99.90;;;;;;4875168;29;20049;-73
2022/10/26 10:53:48;;;;;;;3.70;1.65;;;14.50;99.90;;;;;;4871681;29;20081;-73
2022/10/26 10:56:17;;;;;;;;;;;14.50;99.90;;;;;;4861532;29;20124;-73
2022/10/26 10:59:22;;;;;;;5.80;2.03;;;14.50;99.90;;;;;;4876348;29;19924;-72
2022/10/26 11:01:53;;;;;;;4.03;1.83;;;14.50;99.90;;;;;;4862300;29;20125;-73
2022/10/26 11:04:52;;;;;;;4.70;1.60;;;14.60;99.90;;;;;;4877939;29;20045;-73
2022/10/26 11:07:20;;;;;;;4.03;1.60;;;14.60;99.90;;;;;;4877300;29;20184;-74
2022/10/26 11:09:48;;;;;;;4.28;1.67;;;14.70;99.90;;;;;;4876527;29;20512;-75
2022/10/26 11:12:31;;;;;;;4.43;1.50;;;14.70;99.90;;;;;;4877884;29;20061;-72
2022/10/26 11:15:05;;;;;;;3.55;1.50;;;14.80;99.90;;;;;;4877878;29;20129;-73
2022/10/26 11:18:03;;;;;;;6.55;1.92;;;14.80;99.90;;;;;;4878793;29;20115;-73
2022/10/26 11:20:34;;;;;;;4.43;1.98;;;14.90;99.90;;;;;;4878136;29;20084;-72
2022/10/26 11:23:15;;;;;;;4.82;1.30;;;14.90;99.90;;;;;;4877465;29;20486;-72
2022/10/26 11:26:08;;;;;;;3.67;1.38;;;15.00;99.90;;;;;;4876261;29;20060;-73
2022/10/26 11:28:57;;;;;;;3.97;1.63;;;15.00;99.90;;;;;;4868168;29;20060;-73
2022/10/26 11:31:42;;;;;;;2.95;1.65;;;15.00;99.90;;;;;;4874659;29;20049;-72
2022/10/26 11:34:14;;;;;;;2.70;1.20;;;15.20;99.90;;;;;;4877612;29;20120;-72
2022/10/26 11:36:43;;;;;;;2.45;1.20;;;15.20;99.90;;;;;;4874406;29;20098;-72
2022/10/26 11:39:38;;;;;;;2.53;1.30;;;15.30;99.90;;;;;;4862121;29;20111;-72
2022/10/26 11:42:29;;;;;;;4.93;1.30;;;15.30;99.90;;;;;;4871027;29;20067;-72
2022/10/26 11:45:08;;;;;;;4.97;1.40;;;15.40;99.90;;;;;;4876546;29;20405;-72
2022/10/26 11:47:50;;;;;;;3.08;1.20;;;15.40;99.90;;;;;;4877459;29;20049;-73
2022/10/26 11:50:24;;;;;;;4.45;1.42;;;15.50;99.90;;;;;;4877761;29;20052;-73
2022/10/26 11:53:15;;;;;;;3.40;1.17;;;15.50;99.90;;;;;;4878556;29;20045;-72
2022/10/26 11:55:45;;;;;;;2.33;1.20;;;15.50;99.90;;;;;;4881149;29;20678;-73
2022/10/26 11:58:11;;;;;;;2.20;1.30;;;15.60;99.90;;;;;;4865188;29;20128;-72
2022/10/26 12:00:48;;;;;;;1.75;1.20;;;15.60;99.90;;;;;;4880558;29;20045;-73
2022/10/26 12:03:20;;;;;;;3.85;1.08;;;15.60;99.90;;;;;;4880842;29;20068;-72
2022/10/26 12:05:49;;;;;;;3.45;1.38;;;15.70;99.90;;;;;;4878491;29;20101;-73
2022/10/26 12:08:23;;;;;;;3.22;1.40;;;15.70;99.90;;;;;;4880399;29;20124;-72
2022/10/26 12:11:01;;;;;;;2.53;1.17;;;15.80;99.90;;;;;;4879193;29;20489;-72
2022/10/26 12:13:51;;;;;;;3.83;1.40;;;15.90;99.90;;;;;;4879051;29;20053;-72
2022/10/26 12:16:41;;;;;;;3.45;1.20;;;15.90;99.90;;;;;;4879948;29;20482;-72
2022/10/26 12:19:38;;;;;;;4.68;1.70;;;16.00;99.90;;;;;;4878502;29;20045;-72
2022/10/26 12:22:08;;;;;;;3.53;1.45;;;16.00;99.90;;;;;;4879397;29;20089;-72
2022/10/26 12:24:35;;;;;;;3.15;1.50;;;16.10;99.90;;;;;;4880157;29;20040;-72
2022/10/26 12:27:05;;;;;;;3.70;1.77;;;16.10;99.90;;;;;;4880365;29;20517;-72
2022/10/26 12:29:45;;;;;;;3.22;1.80;;;16.10;99.90;;;;;;4881303;29;20041;-72
2022/10/26 12:32:29;;;;;;;5.90;1.80;;;16.10;99.90;;;;;;4863304;29;20360;-72
2022/10/26 12:34:55;;;;;;;4.55;1.63;;;16.20;99.90;;;;;;4879480;29;20386;-72
2022/10/26 12:37:28;;;;;;;3.83;1.60;;;16.30;99.90;;;;;;4864556;29;20052;-72
2022/10/26 12:39:54;;;;;;;4.85;1.60;;;16.30;99.90;;;;;;4877791;29;20505;-72
2022/10/26 12:42:22;;;;;;;4.43;1.85;;;16.30;99.90;;;;;;4841135;29;20049;-73
2022/10/26 12:44:51;;;;;;;3.97;1.70;;;16.30;99.90;;;;;;4880594;29;20181;-72
2022/10/26 12:47:28;;;;;;;4.68;1.95;;;16.40;99.90;;;;;;4881101;29;20056;-75
2022/10/26 12:50:17;;;;;;;4.32;1.77;;;16.40;99.90;;;;;;4881008;29;20048;-72
2022/10/26 12:53:07;;;;;;;3.50;1.58;;;16.40;99.90;;;;;;4881460;29;20186;-72
2022/10/26 12:55:41;;;;;;;5.25;1.60;;;16.40;99.90;;;;;;4880609;29;20056;-72
2022/10/26 12:58:34;;;;;;;3.80;1.48;;;16.40;99.90;;;;;;4880481;29;20513;-72
2022/10/26 13:00:59;;;;;;;5.82;1.58;;;16.40;99.90;;;;;;4880273;29;20044;-72
2022/10/26 13:03:25;;;;;;;3.85;1.63;;;16.50;99.90;;;;;;4880038;29;20052;-73
2022/10/26 13:06:19;;;;;;;3.92;2.03;;;16.50;99.90;;;;;;4880530;29;20045;-73